sensor_id;sensor_type;location;lat;lon;timestamp;P1;durP1;ratioP1;P2;durP2;ratioP2
26774;SDS011;14362;51.902;7.626;2023-03-14T00:00:40;5.00;;;1.70;;
26774;SDS011;14362;51.902;7.626;2023-03-14T00:04:42;6.93;;;2.55;;
26774;SDS011;14362;51.902;7.626;2023-03-14T00:08:45;9.73;;;2.40;;
26774;SDS011;14362;51.902;7.626;2023-03-14T00:12:47;3.58;;;2.00;;
26774;SDS011;14362;51.902;7.626;2023-03-14T00:16:48;5.75;;;2.25;;
26774;SDS011;14362;51.902;7.626;2023-03-14T00:20:50;8.70;;;2.03;;
26774;SDS011;14362;51.902;7.626;2023-03-14T00:24:52;5.50;;;1.80;;
26774;SDS011;14362;51.902;7.626;2023-03-14T00:28:54;5.18;;;1.92;;
26774;SDS011;14362;51.902;7.626;2023-03-14T00:32:56;8.25;;;2.20;;
26774;SDS011;14362;51.902;7.626;2023-03-14T00:36:57;5.53;;;2.00;;
26774;SDS011;14362;51.902;7.626;2023-03-14T00:41:01;6.47;;;2.22;;
26774;SDS011;14362;51.902;7.626;2023-03-14T00:45:07;8.10;;;2.50;;
26774;SDS011;14362;51.902;7.626;2023-03-14T00:49:10;5.35;;;2.00;;
26774;SDS011;14362;51.902;7.626;2023-03-14T00:53:11;4.55;;;1.80;;
26774;SDS011;14362;51.902;7.626;2023-03-14T00:57:14;7.88;;;1.80;;
26774;SDS011;14362;51.902;7.626;2023-03-14T01:01:17;7.63;;;2.33;;
26774;SDS011;14362;51.902;7.626;2023-03-14T01:05:19;5.68;;;2.20;;
26774;SDS011;14362;51.902;7.626;2023-03-14T01:09:22;10.27;;;2.22;;
26774;SDS011;14362;51.902;7.626;2023-03-14T01:13:25;5.50;;;2.10;;
26774;SDS011;14362;51.902;7.626;2023-03-14T01:17:29;6.20;;;1.63;;
26774;SDS011;14362;51.902;7.626;2023-03-14T01:21:32;9.60;;;1.95;;
26774;SDS011;14362;51.902;7.626;2023-03-14T01:25:35;7.32;;;2.28;;
26774;SDS011;14362;51.902;7.626;2023-03-14T01:29:43;5.95;;;1.95;;
26774;SDS011;14362;51.902;7.626;2023-03-14T01:37:48;5.28;;;2.08;;
26774;SDS011;14362;51.902;7.626;2023-03-14T01:41:49;6.97;;;2.08;;
26774;SDS011;14362;51.902;7.626;2023-03-14T01:50:23;7.53;;;2.75;;
26774;SDS011;14362;51.902;7.626;2023-03-14T01:54:25;7.65;;;1.95;;
26774;SDS011;14362;51.902;7.626;2023-03-14T01:58:30;3.05;;;1.55;;
26774;SDS011;14362;51.902;7.626;2023-03-14T02:02:35;3.60;;;1.73;;
26774;SDS011;14362;51.902;7.626;2023-03-14T02:06:48;6.53;;;1.50;;
26774;SDS011;14362;51.902;7.626;2023-03-14T02:10:52;7.78;;;1.75;;
26774;SDS011;14362;51.902;7.626;2023-03-14T02:14:53;4.82;;;1.40;;
26774;SDS011;14362;51.902;7.626;2023-03-14T02:18:56;3.97;;;1.40;;
26774;SDS011;14362;51.902;7.626;2023-03-14T02:22:58;6.25;;;1.30;;
26774;SDS011;14362;51.902;7.626;2023-03-14T02:27:06;5.55;;;1.45;;
26774;SDS011;14362;51.902;7.626;2023-03-14T02:31:08;7.10;;;1.85;;
26774;SDS011;14362;51.902;7.626;2023-03-14T02:35:11;6.32;;;1.45;;
26774;SDS011;14362;51.902;7.626;2023-03-14T02:43:21;5.25;;;0.80;;
26774;SDS011;14362;51.902;7.626;2023-03-14T02:47:26;5.18;;;1.38;;
26774;SDS011;14362;51.902;7.626;2023-03-14T02:51:30;3.80;;;1.00;;
26774;SDS011;14362;51.902;7.626;2023-03-14T02:55:33;5.35;;;1.55;;
26774;SDS011;14362;51.902;7.626;2023-03-14T02:59:36;5.93;;;1.45;;
26774;SDS011;14362;51.902;7.626;2023-03-14T03:03:37;3.03;;;1.05;;
26774;SDS011;14362;51.902;7.626;2023-03-14T03:07:38;5.30;;;1.15;;
26774;SDS011;14362;51.902;7.626;2023-03-14T03:11:40;4.25;;;1.20;;
26774;SDS011;14362;51.902;7.626;2023-03-14T03:15:43;4.53;;;1.60;;
26774;SDS011;14362;51.902;7.626;2023-03-14T03:19:44;6.63;;;1.48;;
26774;SDS011;14362;51.902;7.626;2023-03-14T03:23:46;6.45;;;1.27;;
26774;SDS011;14362;51.902;7.626;2023-03-14T03:27:47;4.07;;;1.58;;
26774;SDS011;14362;51.902;7.626;2023-03-14T03:31:50;6.38;;;1.38;;
26774;SDS011;14362;51.902;7.626;2023-03-14T03:35:51;4.00;;;1.30;;
26774;SDS011;14362;51.902;7.626;2023-03-14T03:39:54;4.60;;;1.55;;
26774;SDS011;14362;51.902;7.626;2023-03-14T03:43:55;7.72;;;1.92;;
26774;SDS011;14362;51.902;7.626;2023-03-14T03:47:58;6.63;;;2.17;;
26774;SDS011;14362;51.902;7.626;2023-03-14T03:52:00;7.80;;;3.30;;
26774;SDS011;14362;51.902;7.626;2023-03-14T03:56:01;12.50;;;3.20;;
26774;SDS011;14362;51.902;7.626;2023-03-14T04:00:03;11.32;;;2.63;;
26774;SDS011;14362;51.902;7.626;2023-03-14T04:04:08;10.15;;;3.15;;
26774;SDS011;14362;51.902;7.626;2023-03-14T04:08:09;8.07;;;1.90;;
26774;SDS011;14362;51.902;7.626;2023-03-14T04:12:11;5.55;;;2.22;;
26774;SDS011;14362;51.902;7.626;2023-03-14T04:16:14;6.40;;;2.13;;
26774;SDS011;14362;51.902;7.626;2023-03-14T04:20:18;10.97;;;1.87;;
26774;SDS011;14362;51.902;7.626;2023-03-14T04:24:20;4.65;;;1.60;;
26774;SDS011;14362;51.902;7.626;2023-03-14T04:28:21;6.63;;;1.80;;
26774;SDS011;14362;51.902;7.626;2023-03-14T04:32:23;11.15;;;1.85;;
26774;SDS011;14362;51.902;7.626;2023-03-14T04:36:25;5.60;;;1.80;;
26774;SDS011;14362;51.902;7.626;2023-03-14T04:40:27;7.93;;;2.40;;
26774;SDS011;14362;51.902;7.626;2023-03-14T04:44:28;9.35;;;1.90;;
26774;SDS011;14362;51.902;7.626;2023-03-14T04:48:30;12.20;;;2.53;;
26774;SDS011;14362;51.902;7.626;2023-03-14T04:52:33;8.18;;;2.13;;
26774;SDS011;14362;51.902;7.626;2023-03-14T04:56:34;8.05;;;2.13;;
26774;SDS011;14362;51.902;7.626;2023-03-14T05:00:37;6.63;;;1.92;;
26774;SDS011;14362;51.902;7.626;2023-03-14T05:04:38;4.75;;;2.03;;
26774;SDS011;14362;51.902;7.626;2023-03-14T05:08:41;9.07;;;2.03;;
26774;SDS011;14362;51.902;7.626;2023-03-14T05:12:42;5.65;;;1.80;;
26774;SDS011;14362;51.902;7.626;2023-03-14T05:16:44;9.20;;;2.20;;
26774;SDS011;14362;51.902;7.626;2023-03-14T05:20:45;5.82;;;1.67;;
26774;SDS011;14362;51.902;7.626;2023-03-14T05:24:48;7.43;;;2.08;;
26774;SDS011;14362;51.902;7.626;2023-03-14T05:28:49;5.53;;;1.30;;
26774;SDS011;14362;51.902;7.626;2023-03-14T05:32:51;5.57;;;1.55;;
26774;SDS011;14362;51.902;7.626;2023-03-14T05:36:52;5.22;;;1.30;;
26774;SDS011;14362;51.902;7.626;2023-03-14T05:40:56;1.40;;;0.82;;
26774;SDS011;14362;51.902;7.626;2023-03-14T05:44:57;4.70;;;0.90;;
26774;SDS011;14362;51.902;7.626;2023-03-14T05:48:59;2.83;;;1.08;;
26774;SDS011;14362;51.902;7.626;2023-03-14T05:53:01;3.63;;;1.25;;
26774;SDS011;14362;51.902;7.626;2023-03-14T05:57:03;3.30;;;0.88;;
26774;SDS011;14362;51.902;7.626;2023-03-14T06:01:05;4.03;;;0.93;;
26774;SDS011;14362;51.902;7.626;2023-03-14T06:05:08;2.92;;;1.05;;
26774;SDS011;14362;51.902;7.626;2023-03-14T06:09:09;2.78;;;0.77;;
26774;SDS011;14362;51.902;7.626;2023-03-14T06:13:12;3.13;;;1.10;;
26774;SDS011;14362;51.902;7.626;2023-03-14T06:17:15;4.78;;;1.25;;
26774;SDS011;14362;51.902;7.626;2023-03-14T06:21:16;3.75;;;1.20;;
26774;SDS011;14362;51.902;7.626;2023-03-14T06:25:18;3.38;;;1.30;;
26774;SDS011;14362;51.902;7.626;2023-03-14T06:29:21;2.25;;;1.63;;
26774;SDS011;14362;51.902;7.626;2023-03-14T06:33:22;5.32;;;1.60;;
26774;SDS011;14362;51.902;7.626;2023-03-14T06:37:24;2.05;;;1.10;;
26774;SDS011;14362;51.902;7.626;2023-03-14T06:41:25;2.42;;;1.20;;
26774;SDS011;14362;51.902;7.626;2023-03-14T06:45:28;3.00;;;1.20;;
26774;SDS011;14362;51.902;7.626;2023-03-14T06:49:29;4.50;;;1.40;;
26774;SDS011;14362;51.902;7.626;2023-03-14T06:53:31;2.20;;;1.30;;
26774;SDS011;14362;51.902;7.626;2023-03-14T06:57:32;1.88;;;1.20;;
26774;SDS011;14362;51.902;7.626;2023-03-14T07:01:35;2.30;;;1.60;;
26774;SDS011;14362;51.902;7.626;2023-03-14T07:05:36;2.33;;;1.40;;
26774;SDS011;14362;51.902;7.626;2023-03-14T07:09:40;2.83;;;2.00;;
26774;SDS011;14362;51.902;7.626;2023-03-14T07:13:41;4.18;;;2.70;;
26774;SDS011;14362;51.902;7.626;2023-03-14T07:17:44;3.05;;;2.50;;
26774;SDS011;14362;51.902;7.626;2023-03-14T07:21:47;4.18;;;3.05;;
26774;SDS011;14362;51.902;7.626;2023-03-14T07:25:49;5.68;;;3.72;;
26774;SDS011;14362;51.902;7.626;2023-03-14T07:29:51;4.47;;;4.03;;
26774;SDS011;14362;51.902;7.626;2023-03-14T07:33:54;5.15;;;3.67;;
26774;SDS011;14362;51.902;7.626;2023-03-14T07:37:56;6.10;;;4.57;;
26774;SDS011;14362;51.902;7.626;2023-03-14T07:41:57;5.20;;;4.10;;
26774;SDS011;14362;51.902;7.626;2023-03-14T07:45:58;7.88;;;4.70;;
26774;SDS011;14362;51.902;7.626;2023-03-14T07:50:01;7.55;;;5.60;;
26774;SDS011;14362;51.902;7.626;2023-03-14T07:54:03;7.40;;;4.82;;
26774;SDS011;14362;51.902;7.626;2023-03-14T07:58:05;6.55;;;5.20;;
26774;SDS011;14362;51.902;7.626;2023-03-14T08:02:07;6.95;;;5.40;;
26774;SDS011;14362;51.902;7.626;2023-03-14T08:06:13;6.05;;;5.43;;
26774;SDS011;14362;51.902;7.626;2023-03-14T08:10:14;10.15;;;5.90;;
26774;SDS011;14362;51.902;7.626;2023-03-14T08:14:21;5.68;;;4.85;;
26774;SDS011;14362;51.902;7.626;2023-03-14T08:18:23;5.95;;;5.43;;
26774;SDS011;14362;51.902;7.626;2023-03-14T08:22:26;6.05;;;5.45;;
26774;SDS011;14362;51.902;7.626;2023-03-14T08:26:28;5.75;;;5.20;;
26774;SDS011;14362;51.902;7.626;2023-03-14T08:30:29;5.43;;;4.93;;
26774;SDS011;14362;51.902;7.626;2023-03-14T08:34:32;5.55;;;4.70;;
26774;SDS011;14362;51.902;7.626;2023-03-14T08:38:35;5.47;;;4.80;;
26774;SDS011;14362;51.902;7.626;2023-03-14T08:42:36;5.60;;;5.10;;
26774;SDS011;14362;51.902;7.626;2023-03-14T08:46:38;6.10;;;5.45;;
26774;SDS011;14362;51.902;7.626;2023-03-14T08:50:40;7.03;;;6.10;;
26774;SDS011;14362;51.902;7.626;2023-03-14T08:54:42;6.25;;;5.65;;
26774;SDS011;14362;51.902;7.626;2023-03-14T08:58:44;8.15;;;6.88;;
26774;SDS011;14362;51.902;7.626;2023-03-14T09:02:45;8.85;;;6.80;;
26774;SDS011;14362;51.902;7.626;2023-03-14T09:06:47;9.35;;;8.32;;
26774;SDS011;14362;51.902;7.626;2023-03-14T09:10:50;9.15;;;8.25;;
26774;SDS011;14362;51.902;7.626;2023-03-14T09:14:51;9.85;;;8.85;;
26774;SDS011;14362;51.902;7.626;2023-03-14T09:18:52;7.65;;;6.95;;
26774;SDS011;14362;51.902;7.626;2023-03-14T09:22:54;6.80;;;6.20;;
26774;SDS011;14362;51.902;7.626;2023-03-14T09:26:57;7.60;;;6.90;;
26774;SDS011;14362;51.902;7.626;2023-03-14T09:31:04;8.52;;;7.63;;
26774;SDS011;14362;51.902;7.626;2023-03-14T09:35:08;7.60;;;6.90;;
26774;SDS011;14362;51.902;7.626;2023-03-14T09:39:10;6.75;;;6.10;;
26774;SDS011;14362;51.902;7.626;2023-03-14T09:43:13;6.35;;;5.75;;
26774;SDS011;14362;51.902;7.626;2023-03-14T09:47:16;5.60;;;5.10;;
26774;SDS011;14362;51.902;7.626;2023-03-14T09:51:19;3.88;;;2.80;;
26774;SDS011;14362;51.902;7.626;2023-03-14T09:55:23;0.50;;;0.50;;
26774;SDS011;14362;51.902;7.626;2023-03-14T09:59:26;0.63;;;0.63;;
26774;SDS011;14362;51.902;7.626;2023-03-14T10:03:31;2.50;;;0.40;;
26774;SDS011;14362;51.902;7.626;2023-03-14T10:07:34;0.75;;;0.73;;
26774;SDS011;14362;51.902;7.626;2023-03-14T10:11:36;0.80;;;0.45;;
26774;SDS011;14362;51.902;7.626;2023-03-14T10:15:38;0.63;;;0.47;;
26774;SDS011;14362;51.902;7.626;2023-03-14T10:19:49;1.33;;;0.55;;
26774;SDS011;14362;51.902;7.626;2023-03-14T10:23:52;0.30;;;0.30;;
26774;SDS011;14362;51.902;7.626;2023-03-14T10:27:54;1.02;;;0.70;;
26774;SDS011;14362;51.902;7.626;2023-03-14T10:31:59;1.13;;;0.73;;
26774;SDS011;14362;51.902;7.626;2023-03-14T10:36:05;1.02;;;0.60;;
26774;SDS011;14362;51.902;7.626;2023-03-14T10:40:20;0.68;;;0.40;;
26774;SDS011;14362;51.902;7.626;2023-03-14T10:44:26;0.30;;;0.30;;
26774;SDS011;14362;51.902;7.626;2023-03-14T10:48:35;0.57;;;0.52;;
26774;SDS011;14362;51.902;7.626;2023-03-14T10:52:46;1.77;;;0.50;;
26774;SDS011;14362;51.902;7.626;2023-03-14T10:56:55;1.08;;;0.68;;
26774;SDS011;14362;51.902;7.626;2023-03-14T11:01:00;0.77;;;0.70;;
26774;SDS011;14362;51.902;7.626;2023-03-14T11:05:15;2.53;;;1.00;;
26774;SDS011;14362;51.902;7.626;2023-03-14T11:09:29;3.25;;;1.02;;
26774;SDS011;14362;51.902;7.626;2023-03-14T11:13:37;1.45;;;0.90;;
26774;SDS011;14362;51.902;7.626;2023-03-14T11:17:45;3.13;;;0.80;;
26774;SDS011;14362;51.902;7.626;2023-03-14T11:21:55;3.40;;;0.95;;
26774;SDS011;14362;51.902;7.626;2023-03-14T11:26:01;1.75;;;1.17;;
26774;SDS011;14362;51.902;7.626;2023-03-14T11:30:19;3.25;;;1.00;;
26774;SDS011;14362;51.902;7.626;2023-03-14T11:34:27;2.10;;;1.50;;
26774;SDS011;14362;51.902;7.626;2023-03-14T11:38:32;3.33;;;1.80;;
26774;SDS011;14362;51.902;7.626;2023-03-14T11:42:38;2.45;;;1.60;;
26774;SDS011;14362;51.902;7.626;2023-03-14T11:46:43;3.70;;;1.92;;
26774;SDS011;14362;51.902;7.626;2023-03-14T11:50:52;2.88;;;2.03;;
26774;SDS011;14362;51.902;7.626;2023-03-14T11:55:00;5.80;;;2.58;;
26774;SDS011;14362;51.902;7.626;2023-03-14T11:59:13;2.53;;;1.95;;
26774;SDS011;14362;51.902;7.626;2023-03-14T12:03:20;3.15;;;1.50;;
26774;SDS011;14362;51.902;7.626;2023-03-14T12:07:28;9.32;;;1.80;;
26774;SDS011;14362;51.902;7.626;2023-03-14T12:11:40;3.60;;;1.42;;
26774;SDS011;14362;51.902;7.626;2023-03-14T12:15:49;7.07;;;1.50;;
26774;SDS011;14362;51.902;7.626;2023-03-14T12:20:01;10.73;;;1.73;;
26774;SDS011;14362;51.902;7.626;2023-03-14T12:24:14;6.20;;;1.33;;
26774;SDS011;14362;51.902;7.626;2023-03-14T12:28:21;7.80;;;2.50;;
26774;SDS011;14362;51.902;7.626;2023-03-14T12:32:31;10.65;;;1.48;;
26774;SDS011;14362;51.902;7.626;2023-03-14T12:36:51;8.63;;;1.40;;
26774;SDS011;14362;51.902;7.626;2023-03-14T12:40:58;9.30;;;1.77;;
26774;SDS011;14362;51.902;7.626;2023-03-14T12:45:15;5.25;;;1.50;;
26774;SDS011;14362;51.902;7.626;2023-03-14T12:49:28;7.68;;;1.75;;
26774;SDS011;14362;51.902;7.626;2023-03-14T12:53:38;9.90;;;2.50;;
26774;SDS011;14362;51.902;7.626;2023-03-14T12:58:06;21.90;;;3.87;;
26774;SDS011;14362;51.902;7.626;2023-03-14T13:02:25;11.57;;;2.17;;
26774;SDS011;14362;51.902;7.626;2023-03-14T13:06:49;13.43;;;2.58;;
26774;SDS011;14362;51.902;7.626;2023-03-14T13:10:54;12.48;;;2.55;;
26774;SDS011;14362;51.902;7.626;2023-03-14T13:14:56;9.70;;;2.08;;
26774;SDS011;14362;51.902;7.626;2023-03-14T13:19:00;14.52;;;2.38;;
26774;SDS011;14362;51.902;7.626;2023-03-14T13:23:05;17.88;;;2.83;;
26774;SDS011;14362;51.902;7.626;2023-03-14T13:27:08;13.60;;;3.45;;
26774;SDS011;14362;51.902;7.626;2023-03-14T13:31:20;12.98;;;2.65;;
26774;SDS011;14362;51.902;7.626;2023-03-14T13:35:26;18.50;;;2.30;;
26774;SDS011;14362;51.902;7.626;2023-03-14T13:43:32;17.65;;;2.63;;
26774;SDS011;14362;51.902;7.626;2023-03-14T13:47:35;10.25;;;2.45;;
26774;SDS011;14362;51.902;7.626;2023-03-14T13:51:41;9.15;;;1.92;;
26774;SDS011;14362;51.902;7.626;2023-03-14T13:55:44;10.23;;;2.53;;
26774;SDS011;14362;51.902;7.626;2023-03-14T13:59:57;13.13;;;2.67;;
26774;SDS011;14362;51.902;7.626;2023-03-14T14:04:02;11.73;;;2.67;;
26774;SDS011;14362;51.902;7.626;2023-03-14T14:08:11;13.27;;;2.33;;
26774;SDS011;14362;51.902;7.626;2023-03-14T14:12:13;10.35;;;2.08;;
26774;SDS011;14362;51.902;7.626;2023-03-14T14:16:17;9.98;;;3.42;;
26774;SDS011;14362;51.902;7.626;2023-03-14T14:20:26;8.13;;;1.85;;
26774;SDS011;14362;51.902;7.626;2023-03-14T14:24:35;11.48;;;2.45;;
26774;SDS011;14362;51.902;7.626;2023-03-14T14:28:37;14.60;;;1.98;;
26774;SDS011;14362;51.902;7.626;2023-03-14T14:32:40;10.70;;;2.17;;
26774;SDS011;14362;51.902;7.626;2023-03-14T14:36:42;8.18;;;1.83;;
26774;SDS011;14362;51.902;7.626;2023-03-14T14:40:51;12.10;;;1.98;;
26774;SDS011;14362;51.902;7.626;2023-03-14T14:44:56;6.93;;;1.63;;
26774;SDS011;14362;51.902;7.626;2023-03-14T14:49:02;7.93;;;1.58;;
26774;SDS011;14362;51.902;7.626;2023-03-14T14:53:18;4.68;;;1.63;;
26774;SDS011;14362;51.902;7.626;2023-03-14T14:57:25;9.32;;;2.35;;
26774;SDS011;14362;51.902;7.626;2023-03-14T15:01:31;17.67;;;1.58;;
26774;SDS011;14362;51.902;7.626;2023-03-14T15:05:34;8.77;;;1.75;;
26774;SDS011;14362;51.902;7.626;2023-03-14T15:09:37;4.35;;;1.55;;
26774;SDS011;14362;51.902;7.626;2023-03-14T15:13:39;6.95;;;1.75;;
26774;SDS011;14362;51.902;7.626;2023-03-14T15:17:41;9.60;;;1.48;;
26774;SDS011;14362;51.902;7.626;2023-03-14T15:21:42;6.80;;;1.45;;
26774;SDS011;14362;51.902;7.626;2023-03-14T15:25:43;5.80;;;2.15;;
26774;SDS011;14362;51.902;7.626;2023-03-14T15:29:48;7.18;;;1.10;;
26774;SDS011;14362;51.902;7.626;2023-03-14T15:33:50;5.15;;;1.23;;
26774;SDS011;14362;51.902;7.626;2023-03-14T15:37:51;5.63;;;1.35;;
26774;SDS011;14362;51.902;7.626;2023-03-14T15:41:54;6.82;;;1.42;;
26774;SDS011;14362;51.902;7.626;2023-03-14T15:45:57;9.63;;;2.10;;
26774;SDS011;14362;51.902;7.626;2023-03-14T15:49:58;5.70;;;1.35;;
26774;SDS011;14362;51.902;7.626;2023-03-14T15:54:00;6.88;;;1.33;;
26774;SDS011;14362;51.902;7.626;2023-03-14T15:58:02;4.03;;;1.13;;
26774;SDS011;14362;51.902;7.626;2023-03-14T16:02:05;7.30;;;1.48;;
26774;SDS011;14362;51.902;7.626;2023-03-14T16:06:06;8.57;;;1.30;;
26774;SDS011;14362;51.902;7.626;2023-03-14T16:10:09;8.98;;;1.50;;
26774;SDS011;14362;51.902;7.626;2023-03-14T16:14:12;7.85;;;1.75;;
26774;SDS011;14362;51.902;7.626;2023-03-14T16:18:15;4.03;;;1.50;;
26774;SDS011;14362;51.902;7.626;2023-03-14T16:22:17;3.45;;;1.20;;
26774;SDS011;14362;51.902;7.626;2023-03-14T16:26:18;5.20;;;1.45;;
26774;SDS011;14362;51.902;7.626;2023-03-14T16:30:20;9.95;;;1.50;;
26774;SDS011;14362;51.902;7.626;2023-03-14T16:34:23;5.95;;;1.25;;
26774;SDS011;14362;51.902;7.626;2023-03-14T16:38:24;6.88;;;1.67;;
26774;SDS011;14362;51.902;7.626;2023-03-14T16:42:26;6.88;;;1.38;;
26774;SDS011;14362;51.902;7.626;2023-03-14T16:46:28;8.02;;;1.83;;
26774;SDS011;14362;51.902;7.626;2023-03-14T16:50:30;4.15;;;1.60;;
26774;SDS011;14362;51.902;7.626;2023-03-14T16:54:32;5.35;;;2.03;;
26774;SDS011;14362;51.902;7.626;2023-03-14T16:58:34;4.18;;;1.10;;
26774;SDS011;14362;51.902;7.626;2023-03-14T17:02:36;6.93;;;1.40;;
26774;SDS011;14362;51.902;7.626;2023-03-14T17:06:38;3.83;;;1.17;;
26774;SDS011;14362;51.902;7.626;2023-03-14T17:10:40;10.88;;;1.33;;
26774;SDS011;14362;51.902;7.626;2023-03-14T17:14:41;4.82;;;1.02;;
26774;SDS011;14362;51.902;7.626;2023-03-14T17:18:43;4.65;;;1.30;;
26774;SDS011;14362;51.902;7.626;2023-03-14T17:22:46;5.38;;;1.17;;
26774;SDS011;14362;51.902;7.626;2023-03-14T17:26:47;6.63;;;1.65;;
26774;SDS011;14362;51.902;7.626;2023-03-14T17:30:49;7.57;;;1.70;;
26774;SDS011;14362;51.902;7.626;2023-03-14T17:34:51;7.30;;;1.25;;
26774;SDS011;14362;51.902;7.626;2023-03-14T17:38:54;7.35;;;1.60;;
26774;SDS011;14362;51.902;7.626;2023-03-14T17:42:57;10.73;;;1.40;;
26774;SDS011;14362;51.902;7.626;2023-03-14T17:46:58;8.38;;;2.15;;
26774;SDS011;14362;51.902;7.626;2023-03-14T17:50:59;7.43;;;1.60;;
26774;SDS011;14362;51.902;7.626;2023-03-14T17:55:03;10.10;;;1.40;;
26774;SDS011;14362;51.902;7.626;2023-03-14T17:59:05;13.20;;;2.00;;
26774;SDS011;14362;51.902;7.626;2023-03-14T18:03:07;9.82;;;2.05;;
26774;SDS011;14362;51.902;7.626;2023-03-14T18:07:08;8.68;;;1.80;;
26774;SDS011;14362;51.902;7.626;2023-03-14T18:11:11;4.18;;;1.30;;
26774;SDS011;14362;51.902;7.626;2023-03-14T18:15:13;6.95;;;1.20;;
26774;SDS011;14362;51.902;7.626;2023-03-14T18:19:14;4.63;;;1.45;;
26774;SDS011;14362;51.902;7.626;2023-03-14T18:23:16;9.38;;;1.55;;
26774;SDS011;14362;51.902;7.626;2023-03-14T18:27:18;4.28;;;1.50;;
26774;SDS011;14362;51.902;7.626;2023-03-14T18:31:20;8.63;;;1.75;;
26774;SDS011;14362;51.902;7.626;2023-03-14T18:35:24;7.72;;;1.75;;
26774;SDS011;14362;51.902;7.626;2023-03-14T18:39:25;6.80;;;1.50;;
26774;SDS011;14362;51.902;7.626;2023-03-14T18:43:28;3.35;;;1.55;;
26774;SDS011;14362;51.902;7.626;2023-03-14T18:47:29;8.18;;;1.55;;
26774;SDS011;14362;51.902;7.626;2023-03-14T18:51:34;8.13;;;2.85;;
26774;SDS011;14362;51.902;7.626;2023-03-14T18:55:36;4.82;;;2.10;;
26774;SDS011;14362;51.902;7.626;2023-03-14T18:59:38;6.43;;;1.25;;
26774;SDS011;14362;51.902;7.626;2023-03-14T19:03:40;8.85;;;1.58;;
26774;SDS011;14362;51.902;7.626;2023-03-14T19:07:42;11.32;;;2.55;;
26774;SDS011;14362;51.902;7.626;2023-03-14T19:11:43;7.47;;;1.95;;
26774;SDS011;14362;51.902;7.626;2023-03-14T19:15:46;5.28;;;1.48;;
26774;SDS011;14362;51.902;7.626;2023-03-14T19:19:47;5.45;;;1.63;;
26774;SDS011;14362;51.902;7.626;2023-03-14T19:23:50;7.65;;;1.40;;
26774;SDS011;14362;51.902;7.626;2023-03-14T19:27:52;6.28;;;1.42;;
26774;SDS011;14362;51.902;7.626;2023-03-14T19:31:55;9.68;;;2.35;;
26774;SDS011;14362;51.902;7.626;2023-03-14T19:35:56;8.35;;;3.25;;
26774;SDS011;14362;51.902;7.626;2023-03-14T19:39:58;9.43;;;2.65;;
26774;SDS011;14362;51.902;7.626;2023-03-14T19:43:59;8.60;;;3.75;;
26774;SDS011;14362;51.902;7.626;2023-03-14T19:48:03;8.75;;;2.00;;
26774;SDS011;14362;51.902;7.626;2023-03-14T19:52:05;4.40;;;1.67;;
26774;SDS011;14362;51.902;7.626;2023-03-14T19:56:07;7.65;;;1.60;;
26774;SDS011;14362;51.902;7.626;2023-03-14T20:00:09;10.93;;;2.38;;
26774;SDS011;14362;51.902;7.626;2023-03-14T20:04:16;11.45;;;4.55;;
26774;SDS011;14362;51.902;7.626;2023-03-14T20:08:18;9.93;;;2.97;;
26774;SDS011;14362;51.902;7.626;2023-03-14T20:12:20;19.35;;;7.78;;
26774;SDS011;14362;51.902;7.626;2023-03-14T20:16:22;13.35;;;5.07;;
26774;SDS011;14362;51.902;7.626;2023-03-14T20:20:24;9.30;;;3.22;;
26774;SDS011;14362;51.902;7.626;2023-03-14T20:24:26;6.30;;;2.78;;
26774;SDS011;14362;51.902;7.626;2023-03-14T20:28:28;11.00;;;2.80;;
26774;SDS011;14362;51.902;7.626;2023-03-14T20:32:29;10.73;;;2.08;;
26774;SDS011;14362;51.902;7.626;2023-03-14T20:36:32;7.78;;;2.33;;
26774;SDS011;14362;51.902;7.626;2023-03-14T20:40:34;10.20;;;4.05;;
26774;SDS011;14362;51.902;7.626;2023-03-14T20:44:36;20.73;;;7.35;;
26774;SDS011;14362;51.902;7.626;2023-03-14T20:48:37;14.52;;;4.35;;
26774;SDS011;14362;51.902;7.626;2023-03-14T20:52:40;10.43;;;2.45;;
26774;SDS011;14362;51.902;7.626;2023-03-14T20:56:42;8.18;;;1.98;;
26774;SDS011;14362;51.902;7.626;2023-03-14T21:00:46;6.97;;;2.63;;
26774;SDS011;14362;51.902;7.626;2023-03-14T21:04:49;8.85;;;2.00;;
26774;SDS011;14362;51.902;7.626;2023-03-14T21:08:53;8.88;;;1.95;;
26774;SDS011;14362;51.902;7.626;2023-03-14T21:12:54;6.90;;;2.35;;
26774;SDS011;14362;51.902;7.626;2023-03-14T21:16:56;11.40;;;2.85;;
26774;SDS011;14362;51.902;7.626;2023-03-14T21:20:59;8.43;;;2.20;;
26774;SDS011;14362;51.902;7.626;2023-03-14T21:25:02;8.07;;;1.70;;
26774;SDS011;14362;51.902;7.626;2023-03-14T21:29:03;8.90;;;2.47;;
26774;SDS011;14362;51.902;7.626;2023-03-14T21:33:05;12.30;;;2.70;;
26774;SDS011;14362;51.902;7.626;2023-03-14T21:37:06;8.75;;;3.35;;
26774;SDS011;14362;51.902;7.626;2023-03-14T21:41:09;8.07;;;1.52;;
26774;SDS011;14362;51.902;7.626;2023-03-14T21:45:10;11.13;;;1.77;;
26774;SDS011;14362;51.902;7.626;2023-03-14T21:49:12;5.97;;;1.50;;
26774;SDS011;14362;51.902;7.626;2023-03-14T21:53:14;7.80;;;2.10;;
26774;SDS011;14362;51.902;7.626;2023-03-14T21:57:16;11.23;;;1.92;;
26774;SDS011;14362;51.902;7.626;2023-03-14T22:01:18;10.40;;;1.83;;
26774;SDS011;14362;51.902;7.626;2023-03-14T22:05:21;6.88;;;2.05;;
26774;SDS011;14362;51.902;7.626;2023-03-14T22:09:23;7.18;;;1.85;;
26774;SDS011;14362;51.902;7.626;2023-03-14T22:13:25;11.10;;;1.98;;
26774;SDS011;14362;51.902;7.626;2023-03-14T22:17:27;9.60;;;2.03;;
26774;SDS011;14362;51.902;7.626;2023-03-14T22:21:28;5.65;;;1.52;;
26774;SDS011;14362;51.902;7.626;2023-03-14T22:25:30;11.20;;;2.28;;
26774;SDS011;14362;51.902;7.626;2023-03-14T22:29:32;12.48;;;2.08;;
26774;SDS011;14362;51.902;7.626;2023-03-14T22:33:36;4.07;;;1.65;;
26774;SDS011;14362;51.902;7.626;2023-03-14T22:37:37;5.10;;;1.60;;
26774;SDS011;14362;51.902;7.626;2023-03-14T22:41:39;4.50;;;1.73;;
26774;SDS011;14362;51.902;7.626;2023-03-14T22:45:42;9.50;;;2.10;;
26774;SDS011;14362;51.902;7.626;2023-03-14T22:49:43;7.90;;;1.63;;
26774;SDS011;14362;51.902;7.626;2023-03-14T22:53:45;9.85;;;1.92;;
26774;SDS011;14362;51.902;7.626;2023-03-14T22:57:49;5.75;;;1.90;;
26774;SDS011;14362;51.902;7.626;2023-03-14T23:01:52;4.40;;;1.40;;
26774;SDS011;14362;51.902;7.626;2023-03-14T23:05:54;12.85;;;1.90;;
26774;SDS011;14362;51.902;7.626;2023-03-14T23:09:55;14.65;;;1.88;;
26774;SDS011;14362;51.902;7.626;2023-03-14T23:13:57;7.75;;;2.03;;
26774;SDS011;14362;51.902;7.626;2023-03-14T23:17:59;6.18;;;1.50;;
26774;SDS011;14362;51.902;7.626;2023-03-14T23:22:01;7.82;;;1.70;;
26774;SDS011;14362;51.902;7.626;2023-03-14T23:26:03;6.20;;;1.45;;
26774;SDS011;14362;51.902;7.626;2023-03-14T23:30:05;10.35;;;1.92;;
26774;SDS011;14362;51.902;7.626;2023-03-14T23:34:09;9.68;;;1.88;;
26774;SDS011;14362;51.902;7.626;2023-03-14T23:38:10;3.97;;;1.60;;
26774;SDS011;14362;51.902;7.626;2023-03-14T23:42:12;9.65;;;2.67;;
26774;SDS011;14362;51.902;7.626;2023-03-14T23:46:14;5.88;;;1.80;;
26774;SDS011;14362;51.902;7.626;2023-03-14T23:50:17;6.55;;;1.75;;
26774;SDS011;14362;51.902;7.626;2023-03-14T23:54:19;6.60;;;1.80;;
26774;SDS011;14362;51.902;7.626;2023-03-14T23:58:20;7.55;;;1.75;;
